Time;durP1;ratioP1;P1;durP2;ratioP2;P2;SDS_P1;SDS_P2;PMS_P1;PMS_P2;Temp;Humidity;BMP_temperature;BMP_pressure;BME280_temperature;BME280_humidity;BME280_pressure;Samples;Min_cycle;Max_cycle;Signal;HPM_P1;HPM_P2
2022/02/12 07:02:12;;;;;;;36.97;14.85;;;;;;;;;;5065579;23;20127;-89
2022/02/12 07:04:38;;;;;;;41.75;21.60;;;;;;;;;;4915007;29;20052;-88
2022/02/12 07:07:05;;;;;;;25.13;12.02;;;;;;;;;;4911284;29;20056;-87
2022/02/12 07:09:32;;;;;;;35.75;18.70;;;;;;;;;;4918370;29;20048;-88
2022/02/12 07:11:58;;;;;;;34.63;18.70;;;;;;;;;;4917720;29;20488;-88
2022/02/12 07:14:25;;;;;;;38.13;18.10;;;;;;;;;;4914544;29;20040;-87
2022/02/12 07:16:52;;;;;;;27.27;12.00;;;;;;;;;;4913216;29;20049;-89
2022/02/12 07:19:18;;;;;;;30.10;11.77;;;;;;;;;;4914513;29;20132;-88
2022/02/12 07:21:45;;;;;;;24.73;10.18;;;;;;;;;;4915037;29;20131;-89
2022/02/12 07:24:12;;;;;;;27.17;10.55;;;;;;;;;;4914896;29;20064;-89
2022/02/12 07:26:38;;;;;;;26.80;11.60;;;;;;;;;;4919373;29;20048;-89
2022/02/12 07:29:05;;;;;;;25.33;11.05;;;;;;;;;;4912987;29;20040;-89
2022/02/12 07:31:33;;;;;;;32.92;10.77;;;;;;;;;;4915471;29;20087;-89
2022/02/12 07:34:00;;;;;;;27.10;10.38;;;;;;;;;;4901431;29;20040;-89
2022/02/12 07:36:26;;;;;;;25.98;10.93;;;;;;;;;;4915058;29;20619;-89
2022/02/12 07:38:53;;;;;;;32.30;11.85;;;;;;;;;;4911698;29;20048;-89
2022/02/12 07:41:20;;;;;;;27.95;10.60;;;;;;;;;;4915481;29;20087;-89
2022/02/12 07:43:47;;;;;;;27.77;12.68;;;;;;;;;;4914265;29;20120;-89
2022/02/12 07:46:14;;;;;;;24.30;10.75;;;;;;;;;;4916906;29;20083;-89
2022/02/12 07:48:42;;;;;;;22.77;10.80;;;;;;;;;;4917312;29;20056;-89
2022/02/12 07:51:11;;;;;;;28.70;11.23;;;;;;;;;;4917290;29;20070;-89
2022/02/12 07:53:38;;;;;;;28.40;12.05;;;;;;;;;;4916501;29;20078;-90
2022/02/12 07:56:05;;;;;;;32.42;12.00;;;;;;;;;;4915085;29;20048;-88
2022/02/12 07:58:31;;;;;;;33.70;13.15;;;;;;;;;;4916334;29;20056;-90
2022/02/12 08:00:58;;;;;;;26.80;11.60;;;;;;;;;;4914008;29;20056;-89
2022/02/12 08:03:24;;;;;;;30.50;11.32;;;;;;;;;;4904116;29;20055;-89
2022/02/12 08:05:51;;;;;;;26.83;10.60;;;;;;;;;;4914643;29;20509;-90
2022/02/12 08:08:18;;;;;;;28.63;12.13;;;;;;;;;;4916523;29;20087;-90
2022/02/12 08:13:29;;;;;;;40.45;12.60;;;;;;;;;;4903860;29;20054;-89
2022/02/12 08:15:56;;;;;;;39.80;13.30;;;;;;;;;;4914964;29;20075;-90
2022/02/12 08:18:22;;;;;;;44.47;13.68;;;;;;;;;;4910139;29;20072;-89
2022/02/12 08:20:49;;;;;;;44.08;13.38;;;;;;;;;;4907208;29;20048;-89
2022/02/12 08:23:17;;;;;;;40.28;13.13;;;;;;;;;;4918546;29;20593;-89
2022/02/12 08:25:45;;;;;;;47.22;14.15;;;;;;;;;;4914663;29;20052;-91
2022/02/12 08:28:11;;;;;;;40.05;13.63;;;;;;;;;;4915340;29;20103;-88
2022/02/12 08:30:38;;;;;;;48.50;14.68;;;;;;;;;;4912930;29;20147;-91
2022/02/12 08:33:05;;;;;;;39.03;14.25;;;;;;;;;;4910804;29;20072;-89
2022/02/12 08:35:51;;;;;;;32.58;12.77;;;;;;;;;;4910993;29;20527;-89
2022/02/12 08:38:18;;;;;;;47.35;13.43;;;;;;;;;;4913796;29;20040;-88
2022/02/12 08:40:44;;;;;;;39.13;12.40;;;;;;;;;;4911289;29;20927;-88
2022/02/12 08:43:12;;;;;;;38.35;12.68;;;;;;;;;;4912731;29;20107;-89
2022/02/12 08:45:40;;;;;;;27.33;12.63;;;;;;;;;;4913000;29;20158;-89
2022/02/12 08:48:09;;;;;;;38.42;12.63;;;;;;;;;;4913447;29;20068;-89
2022/02/12 08:50:37;;;;;;;25.30;13.48;;;;;;;;;;4914946;29;20044;-90
2022/02/12 08:53:04;;;;;;;33.70;13.52;;;;;;;;;;4914640;29;20449;-88
2022/02/12 08:55:31;;;;;;;34.75;12.98;;;;;;;;;;4912465;29;20048;-90
2022/02/12 08:57:57;;;;;;;28.38;11.70;;;;;;;;;;4914874;29;20558;-91
2022/02/12 09:00:24;;;;;;;30.00;11.57;;;;;;;;;;4914376;29;20052;-91
2022/02/12 09:03:10;;;;;;;30.15;12.27;;;;;;;;;;4897569;29;20052;-92
2022/02/12 09:05:36;;;;;;;32.08;12.30;;;;;;;;;;4913218;29;20487;-91
2022/02/12 09:08:04;;;;;;;29.10;12.35;;;;;;;;;;4910829;29;20056;-91
2022/02/12 09:10:30;;;;;;;29.45;12.25;;;;;;;;;;4919036;28;20055;-89
2022/02/12 09:12:57;;;;;;;28.10;11.90;;;;;;;;;;4911594;29;20155;-90
2022/02/12 09:15:25;;;;;;;18.58;11.75;;;;;;;;;;4911389;29;20086;-89
2022/02/12 09:17:51;;;;;;;29.20;11.27;;;;;;;;;;4910041;29;20075;-89
2022/02/12 09:20:18;;;;;;;25.10;11.85;;;;;;;;;;4909572;29;20040;-88
2022/02/12 09:22:45;;;;;;;24.77;11.55;;;;;;;;;;4911887;29;20089;-92
2022/02/12 09:25:12;;;;;;;25.83;11.38;;;;;;;;;;4913072;29;20044;-89
2022/02/12 09:27:40;;;;;;;30.52;11.32;;;;;;;;;;4911960;29;20516;-88
2022/02/12 09:30:08;;;;;;;28.92;11.43;;;;;;;;;;4911229;29;20063;-89
2022/02/12 09:32:35;;;;;;;26.08;11.07;;;;;;;;;;4916075;29;20413;-90
2022/02/12 09:35:01;;;;;;;24.48;11.75;;;;;;;;;;4914521;29;20052;-90
2022/02/12 09:37:29;;;;;;;25.88;11.05;;;;;;;;;;4913188;29;20498;-88
2022/02/12 09:39:55;;;;;;;17.05;10.68;;;;;;;;;;4913794;29;20504;-88
2022/02/12 09:42:22;;;;;;;24.73;11.15;;;;;;;;;;4912261;29;20558;-89
2022/02/12 09:44:49;;;;;;;21.00;9.68;;;;;;;;;;4913353;29;20123;-88
2022/02/12 09:47:40;;;;;;;25.73;11.88;;;;;;;;;;4914843;29;20048;-83
2022/02/12 09:50:08;;;;;;;18.27;10.48;;;;;;;;;;4915504;29;20104;-89
2022/02/12 09:52:36;;;;;;;19.58;10.00;;;;;;;;;;4915483;29;20059;-89
2022/02/12 09:55:04;;;;;;;23.08;10.10;;;;;;;;;;4914912;29;20549;-88
2022/02/12 09:57:32;;;;;;;15.88;9.88;;;;;;;;;;4914859;29;20107;-88
2022/02/12 10:00:06;;;;;;;18.80;9.90;;;;;;;;;;4913915;29;20103;-89
2022/02/12 10:02:33;;;;;;;19.55;10.10;;;;;;;;;;4914692;29;20060;-89
2022/02/12 10:05:23;;;;;;;20.52;9.63;;;;;;;;;;4910655;29;20057;-88
2022/02/12 10:08:13;;;;;;;20.73;9.77;;;;;;;;;;4909137;29;20433;-89
2022/02/12 10:10:40;;;;;;;18.15;10.50;;;;;;;;;;4912043;29;20044;-88
2022/02/12 10:13:28;;;;;;;21.65;10.40;;;;;;;;;;4912121;29;20516;-90
2022/02/12 10:15:57;;;;;;;28.25;10.18;;;;;;;;;;4912444;29;20076;-90
2022/02/12 10:18:26;;;;;;;19.45;9.80;;;;;;;;;;4910798;29;20076;-90
2022/02/12 10:20:59;;;;;;;18.20;9.77;;;;;;;;;;4912976;29;20576;-91
2022/02/12 10:23:28;;;;;;;21.55;10.27;;;;;;;;;;4908252;29;20055;-89
2022/02/12 10:26:04;;;;;;;23.17;9.95;;;;;;;;;;4911677;29;20108;-89
2022/02/12 10:28:37;;;;;;;22.98;9.45;;;;;;;;;;4916676;29;20087;-90
2022/02/12 10:31:04;;;;;;;24.67;9.30;;;;;;;;;;4910783;29;20059;-90
2022/02/12 10:33:41;;;;;;;19.70;9.82;;;;;;;;;;4913142;29;20056;-92
2022/02/12 10:36:13;;;;;;;25.08;9.82;;;;;;;;;;4910324;29;20417;-90
2022/02/12 10:38:44;;;;;;;15.48;9.57;;;;;;;;;;4911768;29;20582;-88
2022/02/12 10:41:21;;;;;;;25.13;10.43;;;;;;;;;;4912178;29;20044;-90
2022/02/12 10:43:53;;;;;;;33.55;10.18;;;;;;;;;;4914911;29;20067;-90
2022/02/12 10:46:21;;;;;;;22.20;9.30;;;;;;;;;;4910018;29;20048;-89
2022/02/12 10:48:50;;;;;;;15.73;9.07;;;;;;;;;;4913442;29;20107;-90
2022/02/12 10:51:17;;;;;;;19.75;9.35;;;;;;;;;;4914937;29;20052;-91
2022/02/12 10:53:55;;;;;;;20.92;8.73;;;;;;;;;;4913479;29;20056;-92
2022/02/12 10:56:26;;;;;;;19.45;9.15;;;;;;;;;;4904002;29;20572;-90
2022/02/12 10:58:53;;;;;;;18.60;8.55;;;;;;;;;;4907728;29;20103;-92
2022/02/12 11:01:22;;;;;;;19.70;8.68;;;;;;;;;;4910152;29;20060;-85
2022/02/12 11:03:51;;;;;;;15.30;9.13;;;;;;;;;;4910141;29;20044;-91
2022/02/12 11:06:17;;;;;;;16.83;7.13;;;;;;;;;;4908458;29;20126;-88
2022/02/12 11:08:44;;;;;;;17.63;6.05;;;;;;;;;;4910036;29;20052;-87
2022/02/12 11:11:11;;;;;;;17.33;5.93;;;;;;;;;;4904364;29;20531;-81
2022/02/12 11:13:38;;;;;;;11.07;5.90;;;;;;;;;;4906954;29;20111;-81
2022/02/12 11:16:05;;;;;;;15.25;6.25;;;;;;;;;;4890050;29;20088;-81
2022/02/12 11:18:32;;;;;;;14.15;5.82;;;;;;;;;;4899515;29;20551;-82
2022/02/12 11:20:59;;;;;;;13.25;6.72;;;;;;;;;;4901134;29;20481;-86
2022/02/12 11:23:27;;;;;;;12.15;6.28;;;;;;;;;;4893225;29;20058;-86
2022/02/12 11:26:05;;;;;;;15.18;6.22;;;;;;;;;;4898168;29;20063;-87
2022/02/12 11:28:36;;;;;;;18.95;6.78;;;;;;;;;;4895631;29;20139;-86
2022/02/12 11:31:27;;;;;;;17.15;6.13;;;;;;;;;;4906059;29;20571;-85
2022/02/12 11:34:15;;;;;;;15.02;5.25;;;;;;;;;;4895978;29;20523;-86
2022/02/12 11:37:16;;;;;;;14.10;4.18;;;;;;;;;;4901871;29;20541;-87
2022/02/12 11:40:22;;;;;;;8.85;3.22;;;;;;;;;;4905650;29;20044;-86
2022/02/12 11:42:54;;;;;;;10.32;2.92;;;;;;;;;;4895925;29;20115;-85
2022/02/12 11:45:35;;;;;;;8.95;2.78;;;;;;;;;;4898623;29;20048;-87
2022/02/12 11:48:23;;;;;;;6.95;2.45;;;;;;;;;;4904131;29;20568;-88
2022/02/12 11:50:55;;;;;;;10.68;2.60;;;;;;;;;;4865178;29;20055;-87
2022/02/12 11:53:43;;;;;;;9.00;2.50;;;;;;;;;;4910816;29;25493;-88
2022/02/12 11:56:10;;;;;;;10.57;2.40;;;;;;;;;;4903953;29;20114;-87
2022/02/12 11:58:45;;;;;;;8.63;2.30;;;;;;;;;;4902076;29;20048;-88
2022/02/12 12:01:35;;;;;;;12.05;2.25;;;;;;;;;;4893651;29;20131;-87
2022/02/12 12:04:05;;;;;;;11.98;2.25;;;;;;;;;;4907043;29;20051;-86
2022/02/12 12:06:34;;;;;;;8.63;2.33;;;;;;;;;;4896596;29;20097;-87
2022/02/12 12:09:11;;;;;;;6.28;1.90;;;;;;;;;;4911999;29;20124;-88
2022/02/12 12:11:43;;;;;;;6.88;2.28;;;;;;;;;;4894053;29;20052;-87
2022/02/12 12:14:22;;;;;;;12.57;7.60;;;;;;;;;;4897762;29;20050;-86
2022/02/12 12:16:54;;;;;;;16.73;5.85;;;;;;;;;;4921522;29;20059;-88
2022/02/12 12:19:42;;;;;;;12.48;2.80;;;;;;;;;;4905141;29;24512;-87
2022/02/12 12:22:16;;;;;;;8.23;1.92;;;;;;;;;;4900814;29;20251;-87
2022/02/12 12:25:00;;;;;;;9.02;2.50;;;;;;;;;;4905828;29;20056;-87
2022/02/12 12:27:33;;;;;;;9.02;2.47;;;;;;;;;;4906238;29;20076;-88
2022/02/12 12:33:02;;;;;;;9.50;3.30;;;;;;;;;;4906337;29;20051;-86
2022/02/12 12:35:29;;;;;;;9.65;2.90;;;;;;;;;;4906543;29;20573;-88
2022/02/12 12:37:57;;;;;;;10.23;2.38;;;;;;;;;;4908014;29;20087;-87
2022/02/12 12:40:29;;;;;;;12.93;2.70;;;;;;;;;;4908250;29;20051;-86
2022/02/12 12:43:05;;;;;;;7.75;1.83;;;;;;;;;;4917018;29;20053;-87
2022/02/12 12:45:46;;;;;;;8.55;1.77;;;;;;;;;;4907169;29;20063;-87
2022/02/12 12:48:13;;;;;;;9.20;1.90;;;;;;;;;;4899429;29;20040;-86
2022/02/12 12:50:42;;;;;;;8.95;2.10;;;;;;;;;;4898303;29;20059;-86
2022/02/12 12:53:10;;;;;;;7.90;2.10;;;;;;;;;;4895455;29;20413;-85
2022/02/12 12:55:38;;;;;;;6.53;1.90;;;;;;;;;;4897504;29;20060;-85
2022/02/12 12:58:12;;;;;;;6.72;2.00;;;;;;;;;;4896278;29;20044;-85
2022/02/12 13:00:39;;;;;;;12.32;2.03;;;;;;;;;;4899677;29;20426;-86
2022/02/12 13:03:12;;;;;;;13.68;6.63;;;;;;;;;;4899706;29;20048;-86
2022/02/12 13:05:39;;;;;;;16.55;7.30;;;;;;;;;;4906468;29;20512;-85
2022/02/12 13:08:09;;;;;;;24.90;15.65;;;;;;;;;;4902714;29;20052;-91
2022/02/12 13:10:38;;;;;;;27.10;22.15;;;;;;;;;;4909778;29;20062;-91
2022/02/12 13:13:16;;;;;;;20.33;13.80;;;;;;;;;;4904925;29;20079;-91
2022/02/12 13:15:44;;;;;;;12.03;8.17;;;;;;;;;;4908579;29;20055;-92
2022/02/12 13:18:12;;;;;;;27.15;18.60;;;;;;;;;;4910255;29;20052;-92
2022/02/12 13:20:40;;;;;;;13.98;4.38;;;;;;;;;;4909259;29;20104;-93
2022/02/12 13:23:12;;;;;;;8.83;2.60;;;;;;;;;;4906896;29;20052;-93
2022/02/12 13:25:44;;;;;;;12.93;7.50;;;;;;;;;;4908324;29;21152;-92
2022/02/12 13:28:13;;;;;;;18.20;10.95;;;;;;;;;;4904326;29;20056;-92
2022/02/12 13:30:43;;;;;;;16.98;7.95;;;;;;;;;;4904158;29;20052;-92
2022/02/12 13:33:11;;;;;;;11.23;5.50;;;;;;;;;;4904600;29;20040;-91
2022/02/12 13:35:40;;;;;;;9.65;3.97;;;;;;;;;;4902041;29;20525;-92
2022/02/12 13:38:11;;;;;;;9.10;3.53;;;;;;;;;;4904370;29;20055;-92
2022/02/12 13:40:40;;;;;;;11.02;6.10;;;;;;;;;;4905109;29;20061;-93
2022/02/12 13:43:12;;;;;;;12.50;3.95;;;;;;;;;;4908712;29;20851;-91
2022/02/12 13:45:40;;;;;;;10.05;3.58;;;;;;;;;;4906731;29;20528;-91
2022/02/12 13:48:09;;;;;;;7.93;2.67;;;;;;;;;;4904146;29;20784;-89
2022/02/12 13:50:41;;;;;;;8.02;2.53;;;;;;;;;;4909304;29;20068;-89
2022/02/12 13:53:16;;;;;;;8.10;3.83;;;;;;;;;;4902290;29;20425;-90
2022/02/12 13:55:57;;;;;;;9.80;6.40;;;;;;;;;;4904367;29;20064;-89
2022/02/12 13:58:27;;;;;;;9.75;4.65;;;;;;;;;;4914360;29;20041;-91
2022/02/12 14:00:56;;;;;;;9.18;3.35;;;;;;;;;;4909713;29;20056;-90
2022/02/12 14:03:40;;;;;;;9.52;2.40;;;;;;;;;;4913128;29;20112;-91
2022/02/12 14:06:08;;;;;;;5.75;1.67;;;;;;;;;;4905976;29;20076;-92
2022/02/12 14:08:36;;;;;;;7.10;2.40;;;;;;;;;;4918689;29;20051;-90
2022/02/12 14:11:05;;;;;;;7.80;2.53;;;;;;;;;;4911563;29;20052;-91
2022/02/12 14:13:34;;;;;;;8.35;2.15;;;;;;;;;;4913363;29;20059;-90
2022/02/12 14:16:07;;;;;;;10.55;1.80;;;;;;;;;;4911512;29;20052;-89
2022/02/12 14:18:37;;;;;;;9.93;1.45;;;;;;;;;;4915313;29;20058;-91
2022/02/12 14:21:05;;;;;;;10.15;3.40;;;;;;;;;;4906020;29;20056;-92
2022/02/12 14:23:32;;;;;;;8.77;3.03;;;;;;;;;;4907203;29;20151;-90
2022/02/12 14:25:59;;;;;;;11.27;3.20;;;;;;;;;;4913870;29;20044;-92
2022/02/12 14:28:26;;;;;;;13.80;5.65;;;;;;;;;;4904764;29;20120;-89
2022/02/12 14:30:52;;;;;;;18.42;10.23;;;;;;;;;;4910475;29;20048;-91
2022/02/12 14:33:19;;;;;;;19.60;10.25;;;;;;;;;;4901461;29;20588;-87
2022/02/12 14:35:49;;;;;;;17.08;5.93;;;;;;;;;;4911999;29;20052;-91
2022/02/12 14:38:17;;;;;;;21.67;12.02;;;;;;;;;;4916906;29;20055;-89
2022/02/12 14:40:44;;;;;;;20.33;8.82;;;;;;;;;;4911243;29;20135;-89
2022/02/12 14:43:11;;;;;;;7.68;2.30;;;;;;;;;;4911479;29;20044;-91
2022/02/12 14:45:38;;;;;;;5.88;1.83;;;;;;;;;;4913717;29;20090;-90
2022/02/12 14:48:05;;;;;;;40.63;21.55;;;;;;;;;;4909331;29;20088;-88
2022/02/12 14:50:33;;;;;;;41.67;20.35;;;;;;;;;;4910458;29;20060;-88
2022/02/12 14:53:21;;;;;;;6.57;2.83;;;;;;;;;;4911072;29;20521;-88
2022/02/12 14:55:48;;;;;;;11.82;3.58;;;;;;;;;;4909001;29;20058;-89
2022/02/12 14:58:17;;;;;;;13.57;6.47;;;;;;;;;;4895705;29;20055;-88
2022/02/12 15:00:44;;;;;;;17.17;7.88;;;;;;;;;;4911057;29;20056;-88
2022/02/12 15:03:12;;;;;;;20.55;9.15;;;;;;;;;;4909070;29;20508;-87
2022/02/12 15:05:44;;;;;;;19.42;9.82;;;;;;;;;;4897221;29;20131;-90
2022/02/12 15:08:18;;;;;;;9.18;2.17;;;;;;;;;;4909524;29;20043;-89
2022/02/12 15:10:51;;;;;;;10.63;3.53;;;;;;;;;;4900873;29;20054;-86
2022/02/12 15:13:53;;;;;;;6.10;1.58;;;;;;;;;;4894637;29;20040;-89
2022/02/12 15:16:29;;;;;;;5.65;1.70;;;;;;;;;;4909905;29;20051;-89
2022/02/12 15:18:56;;;;;;;5.97;2.10;;;;;;;;;;4911599;29;20052;-88
2022/02/12 15:21:23;;;;;;;15.82;6.85;;;;;;;;;;4900499;29;20056;-87
2022/02/12 15:23:49;;;;;;;10.32;2.38;;;;;;;;;;4909763;29;20470;-87
2022/02/12 15:26:16;;;;;;;45.40;21.92;;;;;;;;;;4908193;29;20047;-88
2022/02/12 15:28:43;;;;;;;22.20;11.40;;;;;;;;;;4904742;29;20056;-88
2022/02/12 15:31:10;;;;;;;13.65;4.97;;;;;;;;;;4908321;29;20473;-88
2022/02/12 15:33:41;;;;;;;13.60;4.88;;;;;;;;;;4909574;29;20517;-88
2022/02/12 15:36:10;;;;;;;10.95;4.18;;;;;;;;;;4908444;29;20055;-87
2022/02/12 15:38:37;;;;;;;7.45;1.80;;;;;;;;;;4910343;29;20052;-87
2022/02/12 15:41:04;;;;;;;11.93;4.25;;;;;;;;;;4909245;29;20051;-87
2022/02/12 15:43:34;;;;;;;15.23;10.48;;;;;;;;;;4907998;29;20056;-86
2022/02/12 15:46:03;;;;;;;8.68;3.33;;;;;;;;;;4909919;29;20520;-88
2022/02/12 15:48:32;;;;;;;9.48;2.20;;;;;;;;;;4899687;29;20054;-87
2022/02/12 15:51:00;;;;;;;5.57;1.48;;;;;;;;;;4906019;29;20489;-87
2022/02/12 15:53:28;;;;;;;5.85;1.73;;;;;;;;;;4896863;29;20047;-87
2022/02/12 15:55:56;;;;;;;10.57;3.65;;;;;;;;;;4879630;29;20052;-87
2022/02/12 15:58:23;;;;;;;4.78;2.40;;;;;;;;;;4897317;29;20515;-87
2022/02/12 16:00:54;;;;;;;5.70;2.05;;;;;;;;;;4897827;29;20140;-86
2022/02/12 16:03:21;;;;;;;7.47;2.88;;;;;;;;;;4904061;29;20058;-88
2022/02/12 16:05:48;;;;;;;7.47;1.70;;;;;;;;;;4910123;29;20052;-89
2022/02/12 16:08:15;;;;;;;7.60;1.85;;;;;;;;;;4909734;29;20048;-88
2022/02/12 16:10:41;;;;;;;9.95;2.65;;;;;;;;;;4908747;29;20060;-88
2022/02/12 16:13:08;;;;;;;6.85;2.45;;;;;;;;;;4905292;29;20424;-88
2022/02/12 16:15:35;;;;;;;6.05;1.30;;;;;;;;;;4912635;29;20504;-87
2022/02/12 16:18:04;;;;;;;6.78;1.85;;;;;;;;;;4911439;29;20539;-88
2022/02/12 16:20:31;;;;;;;10.73;3.08;;;;;;;;;;4910395;29;20058;-89
2022/02/12 16:22:59;;;;;;;8.38;3.45;;;;;;;;;;4907121;29;20044;-89
2022/02/12 16:25:26;;;;;;;7.53;2.30;;;;;;;;;;4903554;29;20051;-88
2022/02/12 16:27:54;;;;;;;11.95;7.10;;;;;;;;;;4900538;29;20057;-88
2022/02/12 16:30:21;;;;;;;13.88;10.43;;;;;;;;;;4904676;29;20108;-89
2022/02/12 16:32:48;;;;;;;7.10;1.90;;;;;;;;;;4902726;29;20044;-88
2022/02/12 16:35:15;;;;;;;11.05;3.03;;;;;;;;;;4903356;29;20520;-89
2022/02/12 16:37:42;;;;;;;7.95;2.65;;;;;;;;;;4900422;29;20048;-89
2022/02/12 16:40:10;;;;;;;20.13;9.85;;;;;;;;;;4907959;29;20083;-88
2022/02/12 16:42:38;;;;;;;16.48;7.00;;;;;;;;;;4901302;29;20108;-88
2022/02/12 16:45:16;;;;;;;12.07;4.10;;;;;;;;;;4899081;29;20103;-89
2022/02/12 16:47:48;;;;;;;11.25;2.80;;;;;;;;;;4903061;29;21056;-88
2022/02/12 16:50:15;;;;;;;9.35;2.97;;;;;;;;;;4903950;29;20060;-90
2022/02/12 16:52:50;;;;;;;11.73;3.95;;;;;;;;;;4915086;29;20060;-88
2022/02/12 16:55:17;;;;;;;9.57;3.45;;;;;;;;;;4910414;29;20095;-89
2022/02/12 16:57:46;;;;;;;12.57;3.95;;;;;;;;;;4911054;29;20063;-87
2022/02/12 17:00:17;;;;;;;24.33;10.50;;;;;;;;;;4907106;29;20064;-88
2022/02/12 17:02:47;;;;;;;21.10;8.13;;;;;;;;;;4908494;29;20056;-88
2022/02/12 17:05:17;;;;;;;18.77;4.47;;;;;;;;;;4899913;29;20135;-86
2022/02/12 17:07:59;;;;;;;5.63;2.35;;;;;;;;;;4898438;29;20055;-89
2022/02/12 17:10:26;;;;;;;12.98;4.03;;;;;;;;;;4895390;29;20059;-88
2022/02/12 17:12:53;;;;;;;13.13;4.53;;;;;;;;;;4900546;29;20053;-88
2022/02/12 17:15:20;;;;;;;11.35;3.33;;;;;;;;;;4901106;29;20048;-86
2022/02/12 17:17:47;;;;;;;13.18;2.92;;;;;;;;;;4899629;29;20057;-88
2022/02/12 17:20:22;;;;;;;6.93;2.55;;;;;;;;;;4899854;29;20469;-88
2022/02/12 17:23:02;;;;;;;;;;;;;;;;;;;;;
2022/02/12 17:25:32;;;;;;;12.63;3.45;;;;;;;;;;4900705;29;20060;-91
2022/02/12 17:28:02;;;;;;;32.38;8.10;;;;;;;;;;4907637;29;20100;-88
2022/02/12 17:30:31;;;;;;;25.88;6.55;;;;;;;;;;4906843;29;20079;-90
2022/02/12 17:33:00;;;;;;;12.80;3.97;;;;;;;;;;4909801;29;20058;-91
2022/02/12 17:35:27;;;;;;;18.58;5.55;;;;;;;;;;4907991;29;20044;-91
2022/02/12 17:38:20;;;;;;;34.90;14.93;;;;;;;;;;4909503;29;20072;-91
2022/02/12 17:40:56;;;;;;;32.90;12.38;;;;;;;;;;4894881;29;20409;-90
2022/02/12 17:43:36;;;;;;;52.33;28.63;;;;;;;;;;4893627;29;20064;-88
2022/02/12 17:46:12;;;;;;;27.13;14.77;;;;;;;;;;4907128;29;20072;-91
2022/02/12 17:48:44;;;;;;;13.65;5.13;;;;;;;;;;4919864;29;20058;-92
2022/02/12 17:51:11;;;;;;;16.77;4.55;;;;;;;;;;4906959;29;20067;-92
2022/02/12 17:53:38;;;;;;;7.60;2.78;;;;;;;;;;4906036;29;20043;-91
2022/02/12 17:56:06;;;;;;;10.00;3.08;;;;;;;;;;4911593;29;20060;-90
2022/02/12 17:58:32;;;;;;;12.50;3.55;;;;;;;;;;4902887;29;20557;-92
2022/02/12 18:00:59;;;;;;;10.63;2.50;;;;;;;;;;4910012;29;20060;-91
2022/02/12 18:03:33;;;;;;;8.40;2.20;;;;;;;;;;4907808;29;20124;-90
2022/02/12 18:06:00;;;;;;;26.52;2.83;;;;;;;;;;4909533;29;20052;-89
2022/02/12 18:09:35;;;;;;;11.98;2.30;;;;;;;;;;4898782;29;20056;-88
2022/02/12 18:11:16;;;;;;;10.38;2.60;;;;;;;;;;4900113;29;20143;-89
2022/02/12 18:13:43;;;;;;;17.98;8.73;;;;;;;;;;4900944;29;20540;-89
2022/02/12 18:16:10;;;;;;;23.58;10.15;;;;;;;;;;4906942;29;20044;-90
2022/02/12 18:18:37;;;;;;;14.02;6.70;;;;;;;;;;4906111;29;20055;-91
2022/02/12 18:21:05;;;;;;;15.98;5.90;;;;;;;;;;4906123;29;20509;-90
2022/02/12 18:23:33;;;;;;;14.30;5.72;;;;;;;;;;4906222;29;20063;-94
2022/02/12 18:26:00;;;;;;;11.10;3.58;;;;;;;;;;4913032;29;20051;-92
2022/02/12 18:28:28;;;;;;;13.68;4.38;;;;;;;;;;4914557;29;20095;-92
2022/02/12 18:30:55;;;;;;;17.37;4.53;;;;;;;;;;4918056;29;20421;-91
2022/02/12 18:33:21;;;;;;;10.65;4.00;;;;;;;;;;4915184;29;20056;-94
2022/02/12 18:35:49;;;;;;;15.23;5.15;;;;;;;;;;4915566;29;20143;-94
2022/02/12 18:38:20;;;;;;;15.95;5.80;;;;;;;;;;4913827;29;20047;-92
2022/02/12 18:41:01;;;;;;;12.85;5.50;;;;;;;;;;5039101;28;20424;-91
2022/02/12 18:43:29;;;;;;;9.98;3.17;;;;;;;;;;5019911;28;20882;-93
2022/02/12 18:45:56;;;;;;;14.38;3.42;;;;;;;;;;5022176;28;20053;-91
2022/02/12 18:48:23;;;;;;;10.77;3.40;;;;;;;;;;5016996;28;20049;-92
2022/02/12 18:50:50;;;;;;;12.05;3.17;;;;;;;;;;5012083;28;20568;-93
2022/02/12 18:53:20;;;;;;;15.70;6.07;;;;;;;;;;5014150;28;20044;-92
2022/02/12 18:55:46;;;;;;;12.27;3.40;;;;;;;;;;5017638;28;20550;-92
2022/02/12 18:58:16;;;;;;;8.70;2.50;;;;;;;;;;5011864;28;20046;-89
2022/02/12 19:00:45;;;;;;;10.30;2.95;;;;;;;;;;5012559;28;20038;-91
2022/02/12 19:03:12;;;;;;;11.88;3.50;;;;;;;;;;5018252;28;20888;-93
2022/02/12 19:05:39;;;;;;;8.82;3.00;;;;;;;;;;5024510;28;20046;-93
2022/02/12 19:08:06;;;;;;;11.85;2.85;;;;;;;;;;5022370;28;20510;-93
2022/02/12 19:10:34;;;;;;;13.10;3.80;;;;;;;;;;5022569;28;20096;-92
2022/02/12 19:13:01;;;;;;;9.98;3.20;;;;;;;;;;5018147;28;20057;-92
2022/02/12 19:15:28;;;;;;;7.18;2.63;;;;;;;;;;5019197;28;20052;-93
2022/02/12 19:17:55;;;;;;;9.95;2.47;;;;;;;;;;5013593;28;20054;-92
2022/02/12 19:20:24;;;;;;;9.30;2.78;;;;;;;;;;5017121;28;20046;-92
2022/02/12 19:22:52;;;;;;;10.90;2.15;;;;;;;;;;5006926;28;20066;-93
2022/02/12 19:25:19;;;;;;;10.75;2.00;;;;;;;;;;5015240;28;20867;-91
2022/02/12 19:27:46;;;;;;;13.00;2.20;;;;;;;;;;5015125;28;20061;-91
2022/02/12 19:30:13;;;;;;;11.00;2.15;;;;;;;;;;5009299;28;20054;-94
2022/02/12 19:32:40;;;;;;;8.35;1.80;;;;;;;;;;5011513;28;20052;-92
2022/02/12 19:35:08;;;;;;;6.45;1.60;;;;;;;;;;5019949;28;20050;-92
2022/02/12 19:37:35;;;;;;;12.27;2.00;;;;;;;;;;5011620;28;20042;-93
2022/02/12 19:40:02;;;;;;;4.05;1.70;;;;;;;;;;5018866;28;20057;-93
2022/02/12 19:42:29;;;;;;;9.77;2.22;;;;;;;;;;5027182;28;20069;-91
2022/02/12 19:44:58;;;;;;;7.57;1.92;;;;;;;;;;5014333;28;20049;-92
2022/02/12 19:47:25;;;;;;;;;;;;;;;;;;5032560;28;20045;-93
2022/02/12 19:49:52;;;;;;;12.10;2.80;;;;;;;;;;5035303;28;19947;-91
2022/02/12 19:52:19;;;;;;;8.48;2.58;;;;;;;;;;5016304;28;20132;-92
2022/02/12 19:54:46;;;;;;;12.88;3.28;;;;;;;;;;5014228;28;20041;-92
2022/02/12 19:57:13;;;;;;;12.82;3.42;;;;;;;;;;5020967;28;20112;-92
2022/02/12 19:59:40;;;;;;;12.23;3.00;;;;;;;;;;5007975;28;20053;-93
2022/02/12 20:02:08;;;;;;;8.45;2.75;;;;;;;;;;5016295;28;20592;-93
2022/02/12 20:04:39;;;;;;;10.80;2.53;;;;;;;;;;5003826;28;20053;-93
2022/02/12 20:07:07;;;;;;;14.07;2.60;;;;;;;;;;5028703;28;20049;-93
2022/02/12 20:09:36;;;;;;;10.40;2.15;;;;;;;;;;5024086;28;20525;-93
2022/02/12 20:12:03;;;;;;;11.00;2.53;;;;;;;;;;5026878;28;20049;-90
2022/02/12 20:14:30;;;;;;;9.10;2.08;;;;;;;;;;5007525;28;20137;-90
2022/02/12 20:16:58;;;;;;;12.02;1.92;;;;;;;;;;5028855;28;20097;-91
2022/02/12 20:19:25;;;;;;;12.88;2.22;;;;;;;;;;5016268;28;20049;-92
2022/02/12 20:21:52;;;;;;;8.98;2.05;;;;;;;;;;5002048;28;20137;-92
2022/02/12 20:24:19;;;;;;;7.55;2.40;;;;;;;;;;4999196;28;20045;-91
2022/02/12 20:26:45;;;;;;;7.43;1.58;;;;;;;;;;5018959;28;20124;-92
2022/02/12 20:29:12;;;;;;;10.43;2.28;;;;;;;;;;5021045;28;20044;-91
2022/02/12 20:31:39;;;;;;;12.15;1.60;;;;;;;;;;5022432;28;20076;-91
2022/02/12 20:34:06;;;;;;;8.63;1.60;;;;;;;;;;5028583;28;20517;-92
2022/02/12 20:36:33;;;;;;;11.20;1.80;;;;;;;;;;5024292;28;20057;-92
2022/02/12 20:39:00;;;;;;;8.57;1.70;;;;;;;;;;5038468;28;20060;-92
2022/02/12 20:41:26;;;;;;;8.10;2.63;;;;;;;;;;5037597;28;20169;-91
2022/02/12 20:43:53;;;;;;;9.73;2.08;;;;;;;;;;5006307;28;20140;-92
2022/02/12 20:46:20;;;;;;;8.82;1.70;;;;;;;;;;5019169;28;20049;-92
2022/02/12 20:48:47;;;;;;;6.65;1.80;;;;;;;;;;5018664;28;20056;-92
2022/02/12 20:51:14;;;;;;;12.35;2.30;;;;;;;;;;5023541;28;20116;-92
2022/02/12 20:53:41;;;;;;;7.68;1.98;;;;;;;;;;5028678;28;20841;-94
2022/02/12 20:56:08;;;;;;;12.65;2.38;;;;;;;;;;5026854;28;20049;-92
2022/02/12 20:58:35;;;;;;;12.10;3.60;;;;;;;;;;5031933;28;20132;-90
2022/02/12 21:01:02;;;;;;;11.13;3.47;;;;;;;;;;5022304;28;20537;-92
2022/02/12 21:03:29;;;;;;;12.30;3.60;;;;;;;;;;5008169;28;20371;-94
2022/02/12 21:05:56;;;;;;;13.63;3.03;;;;;;;;;;5000024;28;20057;-92
2022/02/12 21:08:23;;;;;;;13.52;3.92;;;;;;;;;;5016668;28;20045;-92
2022/02/12 21:10:50;;;;;;;12.02;3.53;;;;;;;;;;5023225;28;20869;-91
2022/02/12 21:13:16;;;;;;;10.93;3.13;;;;;;;;;;5016775;28;20045;-93
2022/02/12 21:15:43;;;;;;;12.88;4.32;;;;;;;;;;5020694;28;20046;-92
2022/02/12 21:18:17;;;;;;;13.68;5.63;;;;;;;;;;5023181;28;20050;-92
2022/02/12 21:20:45;;;;;;;20.40;6.05;;;;;;;;;;5022627;28;20078;-92
2022/02/12 21:23:12;;;;;;;14.93;4.60;;;;;;;;;;5025267;28;20465;-92
2022/02/12 21:25:40;;;;;;;21.58;6.05;;;;;;;;;;5008406;28;20054;-93
2022/02/12 21:28:20;;;;;;;15.02;4.05;;;;;;;;;;5024007;28;20045;-90
2022/02/12 21:30:48;;;;;;;17.52;6.63;;;;;;;;;;5001725;28;20057;-92
2022/02/12 21:33:17;;;;;;;23.80;5.22;;;;;;;;;;5008042;28;20593;-93
2022/02/12 21:35:44;;;;;;;18.90;4.35;;;;;;;;;;5022342;28;20054;-93
2022/02/12 21:38:11;;;;;;;14.63;4.38;;;;;;;;;;4996732;28;20068;-93
2022/02/12 21:40:38;;;;;;;13.70;4.97;;;;;;;;;;5019849;28;20046;-92
2022/02/12 21:43:06;;;;;;;12.82;3.25;;;;;;;;;;5023549;28;20069;-92
2022/02/12 21:45:33;;;;;;;12.13;5.05;;;;;;;;;;5020996;28;20046;-92
2022/02/12 21:48:00;;;;;;;16.67;6.72;;;;;;;;;;5021419;28;20048;-93
2022/02/12 21:50:32;;;;;;;18.90;7.85;;;;;;;;;;5009856;28;20046;-93
2022/02/12 21:52:59;;;;;;;17.25;7.90;;;;;;;;;;5017736;28;20046;-92